createdAt,value
2017-08-29T00:00:15.570Z,70.00
2017-08-29T00:02:43.021Z,70.00
2017-08-29T00:05:10.207Z,70.00
2017-08-29T00:07:37.372Z,70.00
2017-08-29T00:10:04.890Z,70.00
2017-08-29T00:12:32.072Z,70.00
2017-08-29T00:14:59.576Z,70.00
2017-08-29T00:17:26.771Z,70.00
2017-08-29T00:19:53.963Z,70.00
2017-08-29T00:22:21.448Z,70.00
2017-08-29T00:24:48.621Z,70.00
2017-08-29T00:27:16.372Z,70.00
2017-08-29T00:29:43.555Z,70.00
2017-08-29T00:32:10.729Z,70.00
2017-08-29T00:34:37.964Z,70.00
2017-08-29T00:37:05.273Z,70.00
2017-08-29T00:39:32.925Z,70.00
2017-08-29T00:42:00.108Z,70.00
2017-08-29T00:44:27.274Z,70.00
2017-08-29T00:46:54.679Z,70.00
2017-08-29T00:49:21.855Z,70.00
2017-08-29T00:51:49.163Z,70.00
2017-08-29T00:54:16.353Z,70.00
2017-08-29T00:56:43.527Z,70.00
2017-08-29T00:59:11.067Z,70.00
2017-08-29T01:01:38.287Z,70.00
2017-08-29T01:04:05.953Z,70.00
2017-08-29T01:06:33.126Z,70.00
2017-08-29T01:09:00.301Z,70.00
2017-08-29T01:11:27.488Z,70.00
2017-08-29T01:13:54.749Z,70.00
2017-08-29T01:16:22.242Z,70.00
2017-08-29T01:18:49.590Z,70.00
2017-08-29T01:21:17.045Z,69.90
2017-08-29T01:23:44.509Z,70.00
2017-08-29T01:26:11.695Z,70.00
2017-08-29T01:28:38.862Z,70.00
2017-08-29T01:31:06.047Z,70.00
2017-08-29T01:33:33.410Z,70.00
2017-08-29T01:36:00.595Z,70.00
2017-08-29T01:38:27.899Z,69.90
2017-08-29T01:40:55.076Z,69.90
2017-08-29T01:43:22.263Z,70.00
2017-08-29T01:45:49.464Z,69.90
2017-08-29T01:48:16.924Z,70.00
2017-08-29T01:50:44.116Z,70.00
2017-08-29T01:53:11.539Z,70.00
2017-08-29T01:55:38.993Z,70.00
2017-08-29T01:58:06.515Z,70.00
2017-08-29T02:00:33.910Z,70.00
2017-08-29T02:03:01.081Z,69.90
2017-08-29T02:05:28.518Z,69.90
2017-08-29T02:07:56.161Z,69.90
2017-08-29T02:10:23.321Z,69.90
2017-08-29T02:12:50.504Z,70.00
2017-08-29T02:15:17.736Z,70.00
2017-08-29T02:17:44.901Z,69.90
2017-08-29T02:20:12.080Z,69.90
2017-08-29T02:22:39.258Z,70.00
2017-08-29T02:25:06.811Z,69.90
2017-08-29T02:27:34.098Z,69.90
2017-08-29T02:30:01.620Z,69.90
2017-08-29T02:32:29.116Z,69.90
2017-08-29T02:34:56.311Z,69.90
2017-08-29T02:37:23.674Z,69.90
2017-08-29T02:39:51.141Z,69.90
2017-08-29T02:42:19.145Z,70.00
2017-08-29T02:44:46.594Z,70.60
2017-08-29T02:47:14.059Z,69.90
2017-08-29T02:49:41.712Z,69.90
2017-08-29T02:52:08.973Z,69.90
2017-08-29T02:54:36.444Z,69.90
2017-08-29T02:57:03.964Z,69.90
2017-08-29T02:59:31.455Z,69.90
2017-08-29T03:01:59.001Z,69.90
2017-08-29T03:04:26.180Z,69.90
2017-08-29T03:06:53.353Z,69.90
2017-08-29T03:09:20.542Z,69.90
2017-08-29T03:11:48.011Z,69.90
2017-08-29T03:14:15.472Z,69.90
2017-08-29T03:16:42.643Z,69.90
2017-08-29T03:19:09.816Z,69.90
2017-08-29T03:21:37.228Z,69.90
2017-08-29T03:24:04.435Z,69.90
2017-08-29T03:26:31.600Z,69.90
2017-08-29T03:28:58.765Z,69.90
2017-08-29T03:31:26.453Z,69.90
2017-08-29T03:33:54.077Z,69.90
2017-08-29T03:36:21.366Z,69.90
2017-08-29T03:38:49.015Z,69.90
2017-08-29T03:41:16.204Z,69.90
2017-08-29T03:43:43.733Z,69.90
2017-08-29T03:46:11.188Z,69.90
2017-08-29T03:48:38.353Z,69.90
2017-08-29T03:51:05.517Z,69.90
2017-08-29T03:53:32.684Z,69.90
2017-08-29T03:55:59.869Z,69.90
2017-08-29T03:58:27.059Z,69.90
2017-08-29T04:00:54.273Z,69.90
2017-08-29T04:03:21.862Z,69.90
2017-08-29T04:05:49.235Z,69.90
2017-08-29T04:08:16.420Z,69.90
2017-08-29T04:10:44.071Z,69.90
2017-08-29T04:13:11.308Z,69.90
2017-08-29T04:15:38.473Z,69.90
2017-08-29T04:18:05.683Z,69.90
2017-08-29T04:20:32.858Z,69.90
2017-08-29T04:23:00.285Z,69.90
2017-08-29T04:25:27.744Z,69.90
2017-08-29T04:27:54.919Z,69.90
2017-08-29T04:30:22.460Z,69.90
2017-08-29T04:32:49.775Z,69.90
2017-08-29T04:35:17.270Z,69.90
2017-08-29T04:37:44.788Z,69.90
2017-08-29T04:40:11.987Z,69.90
2017-08-29T04:42:39.323Z,69.90
2017-08-29T04:45:06.715Z,69.90
2017-08-29T04:47:34.007Z,69.90
2017-08-29T04:50:01.393Z,69.90
2017-08-29T04:52:28.562Z,69.90
2017-08-29T04:54:56.007Z,69.90
2017-08-29T04:57:23.559Z,69.90
2017-08-29T04:59:50.746Z,69.90
2017-08-29T05:02:18.068Z,69.90
2017-08-29T05:04:45.703Z,69.90
2017-08-29T05:07:13.059Z,69.90
2017-08-29T05:09:40.415Z,69.80
2017-08-29T05:12:08.504Z,69.80
2017-08-29T05:14:35.706Z,70.00
2017-08-29T05:17:03.117Z,69.90
2017-08-29T05:19:30.288Z,70.00
2017-08-29T05:21:58.037Z,70.00
2017-08-29T05:24:25.202Z,70.00
2017-08-29T05:26:52.379Z,70.00
2017-08-29T05:29:19.789Z,70.00
2017-08-29T05:31:46.953Z,70.60
2017-08-29T05:34:14.166Z,70.00
2017-08-29T05:36:41.736Z,69.90
2017-08-29T05:39:08.995Z,69.90
2017-08-29T05:41:36.347Z,69.90
2017-08-29T05:44:03.525Z,69.90
2017-08-29T05:46:30.754Z,69.90
2017-08-29T05:48:58.225Z,69.90
2017-08-29T05:51:25.392Z,69.90
2017-08-29T05:53:52.837Z,69.90
2017-08-29T05:56:20.281Z,69.90
2017-08-29T05:58:47.445Z,69.90
2017-08-29T06:01:14.905Z,69.90
2017-08-29T06:03:42.349Z,69.90
2017-08-29T06:06:09.895Z,70.00
2017-08-29T06:08:37.315Z,70.10
2017-08-29T06:11:04.909Z,70.00
2017-08-29T06:13:32.183Z,70.40
2017-08-29T06:15:59.692Z,70.50
2017-08-29T06:18:27.089Z,70.60
2017-08-29T06:20:54.558Z,70.70
2017-08-29T06:23:21.748Z,70.90
2017-08-29T06:25:49.919Z,70.90
2017-08-29T06:28:17.217Z,71.10
2017-08-29T06:30:44.546Z,71.20
2017-08-29T06:33:11.724Z,71.20
2017-08-29T06:35:39.157Z,71.10
2017-08-29T06:38:06.345Z,71.00
2017-08-29T06:40:33.670Z,71.00
2017-08-29T06:43:00.851Z,71.20
2017-08-29T06:45:28.195Z,71.10
2017-08-29T06:47:55.772Z,71.30
2017-08-29T06:50:22.937Z,71.50
2017-08-29T06:52:50.330Z,71.50
2017-08-29T06:55:17.493Z,71.50
2017-08-29T06:57:44.876Z,71.40
2017-08-29T07:00:12.329Z,71.50
2017-08-29T07:02:39.493Z,71.50
2017-08-29T07:05:06.936Z,71.70
2017-08-29T07:07:34.404Z,71.70
2017-08-29T07:10:01.599Z,71.70
2017-08-29T07:12:28.996Z,71.80
2017-08-29T07:14:56.456Z,71.80
2017-08-29T07:17:23.918Z,71.80
2017-08-29T07:19:51.578Z,71.80
2017-08-29T07:22:18.818Z,71.80
2017-08-29T07:24:46.488Z,71.90
2017-08-29T07:27:14.074Z,71.80
2017-08-29T07:29:41.508Z,71.80
2017-08-29T07:32:09.166Z,71.90
2017-08-29T07:34:36.428Z,72.00
2017-08-29T07:37:04.076Z,72.00
2017-08-29T07:39:31.652Z,72.10
2017-08-29T07:41:58.822Z,72.10
2017-08-29T07:44:26.475Z,72.20
2017-08-29T07:46:53.672Z,72.20
2017-08-29T07:49:21.168Z,72.10
2017-08-29T07:51:48.347Z,71.80
2017-08-29T07:54:15.975Z,72.20
2017-08-29T07:56:43.152Z,71.80
2017-08-29T07:59:10.584Z,71.40
2017-08-29T08:01:38.154Z,71.00
2017-08-29T08:04:05.610Z,70.40
2017-08-29T08:06:32.801Z,70.00
2017-08-29T08:08:59.966Z,69.40
2017-08-29T08:11:27.675Z,69.60
2017-08-29T08:13:55.291Z,68.70
2017-08-29T08:16:22.580Z,68.30
2017-08-29T08:18:49.754Z,68.00
2017-08-29T08:21:16.931Z,67.60
2017-08-29T08:23:44.109Z,67.30
2017-08-29T08:26:11.805Z,67.00
2017-08-29T08:28:39.012Z,66.70
2017-08-29T08:31:06.200Z,66.40
2017-08-29T08:33:33.557Z,66.10
2017-08-29T08:36:01.205Z,65.90
2017-08-29T08:38:28.541Z,65.60
2017-08-29T08:40:55.727Z,65.40
2017-08-29T08:43:23.076Z,65.20
2017-08-29T08:45:50.723Z,65.00
2017-08-29T08:48:17.897Z,64.70
2017-08-29T08:50:45.330Z,64.50
2017-08-29T08:53:12.600Z,64.40
2017-08-29T08:55:39.779Z,64.20
2017-08-29T08:58:07.004Z,64.50
2017-08-29T09:00:34.357Z,64.90
2017-08-29T09:03:01.544Z,65.00
2017-08-29T09:05:29.035Z,65.10
2017-08-29T09:07:56.604Z,65.50
2017-08-29T09:10:23.782Z,65.50
2017-08-29T09:12:51.028Z,65.20
2017-08-29T09:15:18.681Z,65.00
2017-08-29T09:17:45.859Z,64.50
2017-08-29T09:20:13.093Z,64.30
2017-08-29T09:22:40.734Z,64.10
2017-08-29T09:25:08.015Z,64.60
2017-08-29T09:27:35.671Z,64.80
2017-08-29T09:30:02.925Z,64.90
2017-08-29T09:32:30.456Z,65.00
2017-08-29T09:34:57.948Z,65.10
2017-08-29T09:37:25.118Z,65.10
2017-08-29T09:39:52.289Z,65.30
2017-08-29T09:42:19.592Z,65.40
2017-08-29T09:44:47.251Z,65.50
2017-08-29T09:47:14.509Z,65.60
2017-08-29T09:49:41.974Z,65.70
2017-08-29T09:52:09.496Z,66.10
2017-08-29T09:54:36.990Z,66.70
2017-08-29T09:57:04.340Z,67.40
2017-08-29T09:59:31.803Z,68.20
2017-08-29T10:01:59.284Z,69.10
2017-08-29T10:04:26.448Z,69.70
2017-08-29T10:06:53.635Z,70.90
2017-08-29T10:09:20.898Z,70.60
2017-08-29T10:11:48.476Z,71.00
2017-08-29T10:14:16.031Z,71.60
2017-08-29T10:16:43.211Z,71.80
2017-08-29T10:19:10.531Z,71.90
2017-08-29T10:21:37.996Z,72.10
2017-08-29T10:24:05.166Z,72.50
2017-08-29T10:26:32.614Z,72.70
2017-08-29T10:28:59.795Z,72.80
2017-08-29T10:31:26.975Z,73.20
2017-08-29T10:33:54.927Z,73.60
2017-08-29T10:36:22.423Z,73.60
2017-08-29T10:38:49.607Z,73.90
2017-08-29T10:41:17.033Z,74.10
2017-08-29T10:43:44.502Z,74.20
2017-08-29T10:46:11.948Z,74.30
2017-08-29T10:48:39.405Z,74.30
2017-08-29T10:51:06.859Z,73.00
2017-08-29T10:53:34.319Z,72.00
2017-08-29T10:56:01.485Z,71.20
2017-08-29T10:58:28.994Z,70.80
2017-08-29T11:00:56.565Z,70.20
2017-08-29T11:03:23.842Z,69.80
2017-08-29T11:05:51.016Z,69.50
2017-08-29T11:08:18.200Z,69.30
2017-08-29T11:10:45.710Z,69.00
2017-08-29T11:13:13.252Z,68.70
2017-08-29T11:15:40.523Z,68.40
2017-08-29T11:18:07.974Z,68.30
2017-08-29T11:20:35.467Z,68.00
2017-08-29T11:23:02.894Z,67.90
2017-08-29T11:25:30.104Z,67.70
2017-08-29T11:27:57.294Z,67.50
2017-08-29T11:30:24.488Z,67.30
2017-08-29T11:32:51.689Z,67.20
2017-08-29T11:35:18.954Z,67.20
2017-08-29T11:37:46.405Z,67.30
2017-08-29T11:40:13.669Z,67.10
2017-08-29T11:42:40.876Z,66.90
2017-08-29T11:45:08.063Z,66.70
2017-08-29T11:47:35.284Z,66.60
2017-08-29T11:50:02.470Z,66.40
2017-08-29T11:52:29.918Z,66.40
2017-08-29T11:54:57.110Z,66.20
2017-08-29T11:57:24.301Z,66.30
2017-08-29T11:59:51.993Z,66.20
2017-08-29T12:02:19.441Z,66.10
2017-08-29T12:04:46.629Z,66.10
2017-08-29T12:07:14.168Z,66.00
2017-08-29T12:09:41.504Z,65.90
2017-08-29T12:12:08.700Z,65.90
2017-08-29T12:14:36.228Z,65.70
2017-08-29T12:17:03.762Z,65.70
2017-08-29T12:19:31.344Z,65.70
2017-08-29T12:21:58.786Z,65.70
2017-08-29T12:24:25.958Z,65.50
2017-08-29T12:26:53.401Z,65.40
2017-08-29T12:29:20.857Z,65.30
2017-08-29T12:31:48.492Z,65.20
2017-08-29T12:34:16.084Z,65.20
2017-08-29T12:36:43.603Z,65.70
2017-08-29T12:39:10.999Z,65.00
2017-08-29T12:41:38.456Z,65.00
2017-08-29T12:44:05.915Z,65.00
2017-08-29T12:46:33.424Z,64.80
2017-08-29T12:49:00.941Z,64.80
2017-08-29T12:51:28.184Z,65.00
2017-08-29T12:53:55.426Z,65.00
2017-08-29T12:56:22.632Z,65.30
2017-08-29T12:58:50.349Z,65.40
2017-08-29T13:01:18.004Z,65.50
2017-08-29T13:03:45.261Z,65.40
2017-08-29T13:06:12.438Z,65.30
2017-08-29T13:08:39.866Z,65.20
2017-08-29T13:11:07.052Z,65.00
2017-08-29T13:13:34.667Z,64.80
2017-08-29T13:16:01.938Z,64.60
2017-08-29T13:18:29.451Z,64.30
2017-08-29T13:20:56.849Z,64.20
2017-08-29T13:23:24.042Z,64.00
2017-08-29T13:25:51.530Z,63.80
2017-08-29T13:28:19.099Z,63.80
2017-08-29T13:30:46.285Z,64.30
2017-08-29T13:33:13.524Z,64.50
2017-08-29T13:35:41.056Z,64.40
2017-08-29T13:38:08.620Z,64.90
2017-08-29T13:40:35.804Z,64.90
2017-08-29T13:43:03.106Z,64.80
2017-08-29T13:45:30.496Z,64.40
2017-08-29T13:47:58.140Z,64.20
2017-08-29T13:50:25.481Z,63.90
2017-08-29T13:52:53.479Z,64.20
2017-08-29T13:55:21.143Z,64.90
2017-08-29T13:57:48.310Z,65.10
2017-08-29T14:00:15.555Z,64.40
2017-08-29T14:02:43.197Z,64.60
2017-08-29T14:05:10.464Z,64.60
2017-08-29T14:07:37.915Z,64.70
2017-08-29T14:10:05.408Z,64.80
2017-08-29T14:12:32.835Z,65.00
2017-08-29T14:15:00.005Z,65.20
2017-08-29T14:17:27.677Z,65.30
2017-08-29T14:19:54.970Z,65.40
2017-08-29T14:22:22.164Z,65.50
2017-08-29T14:24:49.514Z,65.60
2017-08-29T14:27:16.704Z,65.70
2017-08-29T14:29:44.445Z,65.80
2017-08-29T14:32:12.057Z,65.70
2017-08-29T14:34:39.337Z,65.80
2017-08-29T14:37:07.109Z,65.90
2017-08-29T14:39:34.307Z,65.90
2017-08-29T14:42:01.507Z,66.10
2017-08-29T14:44:28.857Z,66.10
2017-08-29T14:46:56.512Z,66.20
2017-08-29T14:49:23.782Z,66.20
2017-08-29T14:51:51.050Z,66.30
2017-08-29T14:54:18.380Z,66.30
2017-08-29T14:56:45.579Z,66.40
2017-08-29T14:59:12.994Z,66.50
2017-08-29T15:01:40.759Z,66.50
2017-08-29T15:04:08.208Z,66.60
2017-08-29T15:06:35.381Z,67.30
2017-08-29T15:09:02.819Z,66.60
2017-08-29T15:11:30.286Z,66.70
2017-08-29T15:13:57.734Z,66.70
2017-08-29T15:16:24.918Z,66.80
2017-08-29T15:18:52.090Z,66.90
2017-08-29T15:21:19.612Z,67.50
2017-08-29T15:23:47.004Z,68.70
2017-08-29T15:26:14.188Z,68.50
2017-08-29T15:28:41.376Z,68.40
2017-08-29T15:31:08.554Z,68.50
2017-08-29T15:33:36.169Z,68.60
2017-08-29T15:36:03.342Z,68.60
2017-08-29T15:38:30.593Z,68.60
2017-08-29T15:40:57.921Z,68.60
2017-08-29T15:43:25.493Z,68.60
2017-08-29T15:45:52.675Z,68.50
2017-08-29T15:48:19.873Z,68.50
2017-08-29T15:50:47.137Z,68.50
2017-08-29T15:53:14.320Z,68.40
2017-08-29T15:55:41.930Z,68.50
2017-08-29T15:58:09.519Z,68.50
2017-08-29T16:00:36.962Z,68.50
2017-08-29T16:03:04.611Z,68.50
2017-08-29T16:05:31.877Z,68.50
2017-08-29T16:07:59.397Z,68.40
2017-08-29T16:10:26.588Z,68.30
2017-08-29T16:12:53.761Z,67.80
2017-08-29T16:15:21.098Z,67.30
2017-08-29T16:17:48.339Z,66.70
2017-08-29T16:20:15.702Z,66.30
2017-08-29T16:22:42.881Z,65.90
2017-08-29T16:25:10.062Z,65.60
2017-08-29T16:27:37.410Z,65.20
2017-08-29T16:30:05.259Z,64.90
2017-08-29T16:32:33.194Z,64.60
2017-08-29T16:35:00.376Z,64.40
2017-08-29T16:37:27.658Z,64.10
2017-08-29T16:39:55.062Z,64.40
2017-08-29T16:42:22.246Z,64.80
2017-08-29T16:44:49.424Z,64.90
2017-08-29T16:47:16.612Z,64.80
2017-08-29T16:49:43.958Z,65.20
2017-08-29T16:52:11.423Z,65.10
2017-08-29T16:54:38.866Z,65.30
2017-08-29T16:57:06.069Z,65.30
2017-08-29T16:59:33.592Z,65.30
2017-08-29T17:02:00.784Z,65.40
2017-08-29T17:04:28.095Z,65.50
2017-08-29T17:06:55.635Z,65.60
2017-08-29T17:09:23.087Z,65.70
